Weather at Stinson Municipal Airport

Public forecast

Using degrees Fahrenheit for public forecast. Weather courtesy of forecast.io.

Current aviation weather report (METAR) for Stinson Municipal Airport

Retrieved 2022/08/16 10:01 UTC (22 minutes ago):

KSSF 161001Z AUTO 00000KT 9SM BKN008 24/23 A2991 RMK AO2 CIG 007V011 T02390233

Aviation forecast (TAF) for Stinson Municipal Airport

Retrieved 2022/08/16 06:33 UTC (4 hours ago):

TAF KSSF 160530Z 1606/1706 13005KT P6SM SCT020 SCT250 FM160900 11003KT P6SM SCT009 OVC015 TEMPO 1610/1614 BKN009 FM161500 14008KT P6SM SCT050